LFMP/PGF METAR and TAF weather

Enter ICAO airport designator
Station Type Date Time Source
LFMP METAR 2021/01/22 05:30 UTC NOAA

LFMP 220530Z AUTO VRB02KT 6000 BKN004 BKN009 07/07 Q0999 BECMG 4000 SHRA BKN010 FEW030CB


Station Type Date Time Source
LFMP Decoded METAR 2021/01/22 05:30 UTC NOAA

Perpignan, France (LFMP) 42-44N 002-52E 48M
Jan 22, 2021 - 12:30 AM EST / 2021.01.22 0530 UTC
Wind: Variable at 2 MPH (2 KT):0
Visibility: 3 mile(s):0
Sky conditions: mostly cloudy
Weather: Cumulonimbus clouds observed
Temperature: 44 F (7 C)
Dew Point: 44 F (7 C)
Relative Humidity: 100%
Pressure (altimeter): 29.50 in. Hg (0999 hPa)
ob: LFMP 220530Z AUTO VRB02KT 6000 BKN004 BKN009 07/07 Q0999 BECMG 4000 SHRA BKN010 FEW030CB
cycle: 5

Station Type Date Time Source
LFMP TAF 2021/01/22 03:21 UTC NOAA

TAF TAF LFMP 220200Z 2203/2303 VRB03KT 6000 BKN008
TEMPO 2203/2207 3000 BR OVC005 PROB30
TEMPO 2203/2206 0500 FG VV///
BECMG 2207/2209 4000 SHRA BKN010 FEW030CB
BECMG 2210/2212 31020G30KT CAVOK PROB30
TEMPO 2212/2215 31025G40KT

Example: see airport list